Time;durP1;ratioP1;P1;durP2;ratioP2;P2;SDS_P1;SDS_P2;PMS_P1;PMS_P2;Temp;Humidity;BMP_temperature;BMP_pressure;BME280_temperature;BME280_humidity;BME280_pressure;Samples;Min_cycle;Max_cycle;Signal;HPM_P1;HPM_P2
2022/03/01 00:01:16;;;;;;;16.50;12.80;;;;;;;-0.94;86.57;101435.53;5050569;28;20228;-63
2022/03/01 00:03:41;;;;;;;17.60;12.73;;;;;;;-0.88;85.84;101438.16;5071405;28;20177;-58
2022/03/01 00:06:08;;;;;;;18.90;13.10;;;;;;;-0.92;85.65;101441.47;5072044;28;20184;-61
2022/03/01 00:08:33;;;;;;;18.93;12.27;;;;;;;-0.91;86.00;101444.00;5071420;28;20653;-58
2022/03/01 00:10:59;;;;;;;19.03;13.73;;;;;;;-0.87;85.38;101447.44;5069136;28;20223;-59
2022/03/01 00:13:25;;;;;;;18.97;13.77;;;;;;;-0.93;85.51;101440.63;5070388;28;20194;-58
2022/03/01 00:15:50;;;;;;;18.57;13.17;;;;;;;-0.98;86.28;101445.59;5062500;28;20234;-58
2022/03/01 00:18:15;;;;;;;24.37;14.93;;;;;;;-1.07;87.04;101453.03;5080775;28;20200;-59
2022/03/01 00:20:40;;;;;;;22.63;13.00;;;;;;;-1.02;87.16;101445.53;5066796;28;20694;-58
2022/03/01 00:23:06;;;;;;;18.37;11.90;;;;;;;-0.82;84.18;101440.75;5082187;28;20211;-58
2022/03/01 00:25:31;;;;;;;16.57;10.83;;;;;;;-0.44;79.54;101437.06;5071586;28;20180;-59
2022/03/01 00:27:57;;;;;;;14.17;10.93;;;;;;;-0.11;76.36;101446.72;5071105;28;20274;-60
2022/03/01 00:30:22;;;;;;;14.10;10.20;;;;;;;0.18;74.02;101442.81;5043954;28;20232;-59
2022/03/01 00:32:48;;;;;;;13.93;11.07;;;;;;;0.28;73.81;101442.06;5083543;28;20188;-59
2022/03/01 00:35:13;;;;;;;11.93;9.17;;;;;;;0.25;72.15;101439.47;5071699;28;20534;-58
2022/03/01 00:37:38;;;;;;;12.37;8.93;;;;;;;0.42;70.46;101447.25;5070391;28;20690;-58
2022/03/01 00:40:04;;;;;;;12.53;8.97;;;;;;;0.46;70.13;101443.94;5060860;28;20515;-59
2022/03/01 00:42:30;;;;;;;11.23;9.13;;;;;;;0.44;69.74;101443.06;5069938;28;20197;-57
2022/03/01 00:44:56;;;;;;;15.33;8.83;;;;;;;0.41;69.73;101448.94;5071283;28;20173;-61
2022/03/01 00:47:21;;;;;;;11.87;9.23;;;;;;;0.44;69.71;101450.66;5068918;28;20196;-59
2022/03/01 00:49:47;;;;;;;13.67;9.13;;;;;;;0.37;69.87;101454.78;5071214;28;20222;-60
2022/03/01 00:52:12;;;;;;;11.67;8.60;;;;;;;0.47;69.38;101458.25;5060181;28;20264;-59
2022/03/01 00:54:37;;;;;;;15.53;8.70;;;;;;;0.43;69.21;101457.38;5074238;28;20229;-58
2022/03/01 00:57:03;;;;;;;12.07;8.97;;;;;;;0.38;68.89;101451.44;5075105;28;20647;-58
2022/03/01 00:59:28;;;;;;;13.47;9.77;;;;;;;0.31;69.47;101448.00;5074548;28;20172;-58
2022/03/01 01:01:54;;;;;;;10.87;8.10;;;;;;;0.38;69.65;101450.59;5079428;28;20281;-60
2022/03/01 01:04:19;;;;;;;11.10;8.83;;;;;;;0.32;70.70;101461.50;5076334;28;20244;-58
2022/03/01 01:06:44;;;;;;;11.77;9.30;;;;;;;0.23;70.49;101458.88;5075199;28;20177;-58
2022/03/01 01:09:12;;;;;;;11.63;8.90;;;;;;;0.14;70.59;101463.00;5074669;28;20177;-58
2022/03/01 01:11:38;;;;;;;12.00;8.80;;;;;;;0.20;70.57;101466.44;5066389;28;20686;-58
2022/03/01 01:14:03;;;;;;;13.17;9.27;;;;;;;0.28;69.64;101460.59;5077973;28;20180;-58
2022/03/01 01:16:29;;;;;;;12.77;8.97;;;;;;;0.33;68.73;101463.19;5074011;28;20188;-58
2022/03/01 01:18:55;;;;;;;14.17;9.53;;;;;;;0.32;68.10;101462.34;5074497;28;20612;-58
2022/03/01 01:21:21;;;;;;;12.33;9.37;;;;;;;0.50;67.33;101468.44;5082891;28;20227;-58
2022/03/01 01:23:47;;;;;;;12.50;9.43;;;;;;;0.44;67.00;101469.22;5073552;28;20939;-59
2022/03/01 01:26:12;;;;;;;15.20;9.33;;;;;;;0.25;67.34;101469.84;5074670;28;20188;-58
2022/03/01 01:28:37;;;;;;;11.43;9.33;;;;;;;0.34;67.85;101469.97;5075849;28;20542;-58
2022/03/01 01:31:04;;;;;;;15.43;9.50;;;;;;;0.39;67.25;101467.47;5072403;28;20236;-60
2022/03/01 01:33:29;;;;;;;11.87;8.77;;;;;;;0.38;67.42;101463.25;5073195;28;20169;-59
2022/03/01 01:35:54;;;;;;;13.37;8.87;;;;;;;0.32;67.24;101461.50;5074742;28;20570;-57
2022/03/01 01:38:19;;;;;;;12.70;9.43;;;;;;;0.18;67.51;101463.06;5073830;28;20358;-59
2022/03/01 01:40:45;;;;;;;14.10;9.70;;;;;;;0.15;67.83;101464.72;5064134;28;20303;-58
2022/03/01 01:43:10;;;;;;;12.77;8.40;;;;;;;0.09;68.15;101461.28;5073482;28;20204;-58
2022/03/01 01:45:35;;;;;;;11.47;8.67;;;;;;;0.15;68.45;101463.88;5073990;28;20625;-58
2022/03/01 01:48:02;;;;;;;12.33;9.80;;;;;;;0.03;67.97;101461.22;5074317;28;20176;-58
2022/03/01 01:50:30;;;;;;;13.30;9.17;;;;;;;0.04;68.24;101466.28;5065967;28;20767;-58
2022/03/01 01:52:56;;;;;;;12.30;8.83;;;;;;;0.05;68.23;101460.41;5086353;28;20209;-59
2022/03/01 01:55:23;;;;;;;12.63;9.10;;;;;;;0.11;68.19;101464.66;5074079;28;20911;-57
2022/03/01 01:57:48;;;;;;;14.90;9.37;;;;;;;0.05;68.05;101460.41;5072089;28;20583;-58
2022/03/01 02:00:16;;;;;;;13.83;9.63;;;;;;;-0.14;68.98;101459.31;5063711;28;20198;-58
2022/03/01 02:02:42;;;;;;;14.03;9.13;;;;;;;-0.17;69.25;101455.06;5073093;28;20196;-59
2022/03/01 02:05:08;;;;;;;12.43;9.50;;;;;;;-0.09;68.96;101464.44;5073935;28;20187;-60
2022/03/01 02:07:34;;;;;;;25.63;9.40;;;;;;;-0.14;69.24;101464.38;5071966;28;20249;-58
2022/03/01 02:10:00;;;;;;;14.50;9.57;;;;;;;-0.17;69.26;101456.78;5072666;28;20589;-57
2022/03/01 02:12:26;;;;;;;15.33;9.80;;;;;;;-0.19;68.79;101455.91;5046115;28;20311;-58
2022/03/01 02:14:51;;;;;;;12.53;9.13;;;;;;;-0.22;68.95;101456.72;5074128;28;20184;-59
2022/03/01 02:17:18;;;;;;;14.00;9.20;;;;;;;-0.15;68.95;101452.56;5068412;28;20185;-58
2022/03/01 02:19:51;;;;;;;12.30;8.83;;;;;;;-0.35;69.68;101453.19;5085850;28;20177;-61
2022/03/01 02:22:17;;;;;;;15.73;9.30;;;;;;;-0.39;70.32;101451.44;5048877;28;20228;-58
2022/03/01 02:24:42;;;;;;;13.90;10.40;;;;;;;-0.42;69.57;101448.03;5072161;28;20226;-59
2022/03/01 02:27:08;;;;;;;13.37;9.73;;;;;;;-0.49;70.57;101447.09;5076608;28;20180;-58
2022/03/01 02:29:34;;;;;;;13.73;10.03;;;;;;;-0.47;69.99;101447.97;5073033;28;20177;-58
2022/03/01 02:32:03;;;;;;;14.73;9.70;;;;;;;-0.57;70.19;101444.47;5053252;28;20224;-58
2022/03/01 02:34:29;;;;;;;16.00;9.20;;;;;;;-0.53;70.15;101446.22;5072143;28;20183;-58
2022/03/01 02:36:55;;;;;;;15.40;10.00;;;;;;;-0.46;70.21;101448.81;5073381;28;20219;-58
2022/03/01 02:39:20;;;;;;;14.77;9.83;;;;;;;-0.40;69.74;101451.44;5072660;28;20203;-57
2022/03/01 02:41:46;;;;;;;11.87;9.17;;;;;;;-0.38;69.47;101452.31;5062289;28;20233;-58
2022/03/01 02:44:12;;;;;;;12.23;9.23;;;;;;;-0.44;69.66;101455.59;5069907;28;20537;-58
2022/03/01 02:46:38;;;;;;;17.33;9.57;;;;;;;-0.52;69.77;101449.56;5070962;28;20256;-59
2022/03/01 02:49:06;;;;;;;14.90;9.97;;;;;;;-0.51;69.99;101443.69;5067627;28;20640;-58
2022/03/01 02:51:31;;;;;;;14.63;9.40;;;;;;;-0.53;69.93;101450.44;5064571;28;20239;-58
2022/03/01 02:53:57;;;;;;;14.93;9.70;;;;;;;-0.51;69.96;101447.09;5077404;28;20172;-58
2022/03/01 02:56:22;;;;;;;13.90;9.43;;;;;;;-0.59;69.80;101443.59;5073187;28;20188;-60
2022/03/01 02:58:48;;;;;;;13.77;8.93;;;;;;;-0.63;70.15;101441.88;5071127;28;20173;-58
2022/03/01 03:01:13;;;;;;;13.37;9.93;;;;;;;-0.62;70.16;101437.66;5062300;28;20236;-59
2022/03/01 03:03:38;;;;;;;14.83;9.60;;;;;;;-0.67;69.52;101437.59;5072336;28;20179;-58
2022/03/01 03:06:04;;;;;;;14.47;10.43;;;;;;;-0.69;69.54;101432.53;5072710;28;20207;-59
2022/03/01 03:08:30;;;;;;;15.03;10.00;;;;;;;-0.61;69.66;101431.78;5072474;28;20203;-57
2022/03/01 03:10:55;;;;;;;12.53;9.27;;;;;;;-0.62;69.38;101430.94;5062102;28;20232;-58
2022/03/01 03:13:20;;;;;;;17.17;9.90;;;;;;;-0.76;69.58;101425.69;5072084;28;20234;-58
2022/03/01 03:15:47;;;;;;;14.73;10.00;;;;;;;-0.69;69.49;101429.16;5072156;28;20568;-59
2022/03/01 03:18:13;;;;;;;16.27;10.23;;;;;;;-0.70;69.00;101424.94;5071615;28;20748;-60
2022/03/01 03:20:38;;;;;;;18.57;10.43;;;;;;;-0.68;69.22;101421.59;5059508;28;20232;-58
2022/03/01 03:23:04;;;;;;;15.13;10.50;;;;;;;-0.69;69.05;101426.63;5085822;28;20711;-58
2022/03/01 03:25:29;;;;;;;14.27;10.00;;;;;;;-0.78;69.58;101434.94;5072500;28;20227;-58
2022/03/01 03:27:55;;;;;;;15.90;10.87;;;;;;;-0.78;69.32;101429.88;5072118;28;20165;-57
2022/03/01 03:30:20;;;;;;;13.93;10.43;;;;;;;-0.73;69.82;101432.44;5062199;28;20184;-58
2022/03/01 03:32:45;;;;;;;14.03;9.33;;;;;;;-0.66;69.58;101437.63;5071480;28;20180;-58
2022/03/01 03:35:10;;;;;;;16.00;10.40;;;;;;;-0.66;69.45;101439.28;5072418;28;20633;-58
2022/03/01 03:37:36;;;;;;;14.83;10.50;;;;;;;-0.69;68.96;101445.16;5071613;28;20220;-58
2022/03/01 03:40:03;;;;;;;14.43;10.43;;;;;;;-0.75;69.05;101442.53;5070731;28;20185;-59
2022/03/01 03:42:28;;;;;;;13.90;9.70;;;;;;;-0.85;69.63;101435.69;5067324;28;20558;-58
2022/03/01 03:44:53;;;;;;;19.07;11.07;;;;;;;-0.82;69.76;101444.16;5052348;28;20415;-58
2022/03/01 03:47:19;;;;;;;15.33;10.43;;;;;;;-0.87;70.46;101445.78;5051660;28;20172;-58
2022/03/01 03:49:44;;;;;;;16.77;10.67;;;;;;;-0.96;70.23;101449.84;5060480;28;20214;-59
2022/03/01 03:52:09;;;;;;;14.17;9.97;;;;;;;-0.98;70.25;101438.03;5066732;28;20228;-58
2022/03/01 03:54:35;;;;;;;15.57;10.07;;;;;;;-1.01;70.32;101443.00;5072231;28;20566;-58
2022/03/01 03:57:00;;;;;;;15.60;9.33;;;;;;;-1.03;70.76;101443.81;5071890;28;20215;-58
2022/03/01 03:59:25;;;;;;;17.10;10.53;;;;;;;-0.87;70.17;101437.31;5071226;28;20544;-59
2022/03/01 04:01:51;;;;;;;15.73;10.13;;;;;;;-0.86;69.52;101441.56;5050069;28;20262;-58
2022/03/01 04:04:17;;;;;;;16.90;10.77;;;;;;;-0.90;69.66;101439.81;5072054;28;20175;-58
2022/03/01 04:06:42;;;;;;;15.10;10.53;;;;;;;-0.96;69.64;101449.84;5071853;28;20231;-59
2022/03/01 04:09:07;;;;;;;15.57;9.90;;;;;;;-0.92;69.85;101444.81;5071375;28;20176;-59
2022/03/01 04:11:33;;;;;;;15.67;9.67;;;;;;;-0.95;70.00;101454.91;5060493;28;20278;-59
2022/03/01 04:13:59;;;;;;;17.13;10.90;;;;;;;-1.06;69.70;101457.25;5071656;28;20176;-57
2022/03/01 04:16:24;;;;;;;16.43;10.53;;;;;;;-1.02;70.29;101448.91;5061044;28;20664;-58
2022/03/01 04:18:50;;;;;;;17.77;11.57;;;;;;;-1.08;70.82;101461.47;5056007;28;20177;-58
2022/03/01 04:21:16;;;;;;;14.93;9.73;;;;;;;-1.14;69.95;101451.25;5064815;28;20230;-58
2022/03/01 04:23:41;;;;;;;16.77;10.63;;;;;;;-1.19;70.87;101447.78;5069365;28;20705;-57
2022/03/01 04:26:07;;;;;;;15.23;10.33;;;;;;;-1.33;71.23;101445.91;5071730;28;20183;-58
2022/03/01 04:28:32;;;;;;;15.77;10.70;;;;;;;-1.28;71.35;101435.03;5071271;28;20191;-58
2022/03/01 04:30:57;;;;;;;15.20;10.90;;;;;;;-1.15;71.01;101441.97;5034524;28;20740;-60
2022/03/01 04:33:23;;;;;;;15.03;10.83;;;;;;;-1.20;70.96;101436.00;5070976;28;20180;-58
2022/03/01 04:35:49;;;;;;;15.07;10.90;;;;;;;-1.36;72.24;101440.81;5071501;28;20215;-58
2022/03/01 04:38:15;;;;;;;15.97;11.13;;;;;;;-1.31;72.11;101446.78;5069263;28;20248;-60
2022/03/01 04:40:40;;;;;;;17.00;11.50;;;;;;;-1.37;72.48;101444.16;5063009;28;20551;-58
2022/03/01 04:43:06;;;;;;;18.23;11.13;;;;;;;-1.50;73.21;101450.69;5081996;28;20293;-58
2022/03/01 04:45:31;;;;;;;16.37;11.33;;;;;;;-1.49;73.42;101447.34;5071311;28;20163;-58
2022/03/01 04:47:57;;;;;;;16.33;11.00;;;;;;;-1.67;73.65;101441.97;5071094;28;20184;-58
2022/03/01 04:50:23;;;;;;;15.50;10.90;;;;;;;-1.66;74.47;101441.16;5062569;28;20217;-59
2022/03/01 04:52:48;;;;;;;16.07;10.00;;;;;;;-1.70;75.07;101440.25;5083654;28;20186;-58
2022/03/01 04:55:14;;;;;;;16.00;11.50;;;;;;;-1.92;76.49;101433.09;5071160;28;20244;-58
2022/03/01 04:57:40;;;;;;;15.07;10.70;;;;;;;-1.97;78.01;101430.50;5070774;28;20536;-59
2022/03/01 05:00:10;;;;;;;15.70;10.77;;;;;;;-1.85;77.12;101432.38;5059991;28;20193;-57
2022/03/01 05:02:37;;;;;;;15.57;10.70;;;;;;;-1.85;76.99;101433.25;5070078;28;20493;-57
2022/03/01 05:05:03;;;;;;;17.37;11.10;;;;;;;-1.92;77.49;101428.91;5070149;28;20193;-60
2022/03/01 05:07:28;;;;;;;16.97;11.67;;;;;;;-2.01;78.12;101429.59;5070658;28;20411;-59
2022/03/01 05:09:54;;;;;;;16.77;10.63;;;;;;;-1.98;78.09;101434.69;5071516;28;20175;-58
2022/03/01 05:12:20;;;;;;;17.67;11.93;;;;;;;-1.98;77.52;101436.38;5044471;28;20612;-58
2022/03/01 05:14:45;;;;;;;18.87;11.93;;;;;;;-1.99;77.94;101445.59;5071339;28;20411;-58
2022/03/01 05:17:11;;;;;;;17.50;11.53;;;;;;;-2.00;77.63;101443.91;5071415;28;20633;-60
2022/03/01 05:19:37;;;;;;;19.30;11.97;;;;;;;-2.05;77.21;101448.00;5073057;28;20214;-59
2022/03/01 05:22:02;;;;;;;17.47;11.20;;;;;;;-1.92;76.78;101451.63;5076781;28;20895;-59
2022/03/01 05:24:28;;;;;;;17.57;10.97;;;;;;;-1.96;77.19;101459.94;5069333;28;20262;-58
2022/03/01 05:26:54;;;;;;;17.90;11.67;;;;;;;-2.05;77.41;101448.00;5071622;28;20183;-58
2022/03/01 05:29:19;;;;;;;21.33;11.97;;;;;;;-2.32;78.37;101451.69;5069473;28;20192;-58
2022/03/01 05:31:45;;;;;;;17.30;11.90;;;;;;;-2.28;78.84;101445.03;5074542;28;20828;-58
2022/03/01 05:34:10;;;;;;;15.67;10.97;;;;;;;-2.25;78.65;101446.78;5073604;28;20521;-58
2022/03/01 05:36:36;;;;;;;16.27;10.27;;;;;;;-2.27;79.26;101440.03;5070923;28;20701;-59
2022/03/01 05:39:01;;;;;;;19.07;11.83;;;;;;;-2.36;79.32;101449.91;5070833;28;20675;-58
2022/03/01 05:41:28;;;;;;;19.93;11.57;;;;;;;-2.28;78.77;101450.91;5054852;28;20229;-57
2022/03/01 05:43:53;;;;;;;17.57;11.97;;;;;;;-2.25;79.00;101454.34;5068645;28;20269;-59
2022/03/01 05:46:19;;;;;;;15.60;11.33;;;;;;;-2.29;79.05;101459.31;5074663;28;20511;-58
2022/03/01 05:48:44;;;;;;;19.27;12.33;;;;;;;-2.27;78.91;101451.75;5074230;28;20255;-59
2022/03/01 05:51:09;;;;;;;20.33;12.17;;;;;;;-2.30;79.22;101454.22;5063415;28;20225;-58
2022/03/01 05:53:34;;;;;;;17.50;12.13;;;;;;;-2.31;79.06;101450.88;5072805;28;20226;-58
2022/03/01 05:56:00;;;;;;;15.83;11.27;;;;;;;-2.55;79.79;101452.88;5062101;28;20225;-58
2022/03/01 05:58:26;;;;;;;20.20;11.60;;;;;;;-2.53;80.44;101453.75;5073985;28;20708;-58
2022/03/01 06:00:51;;;;;;;20.60;12.17;;;;;;;-2.51;80.32;101452.13;5059360;28;20529;-58
2022/03/01 06:03:16;;;;;;;18.90;12.27;;;;;;;-2.55;81.07;101458.75;5073481;28;20232;-66
2022/03/01 06:05:42;;;;;;;19.70;11.60;;;;;;;-2.52;80.47;101457.97;5074551;28;20215;-59
2022/03/01 06:08:07;;;;;;;18.30;11.70;;;;;;;-2.54;80.66;101455.44;5072243;28;20174;-58
2022/03/01 06:10:32;;;;;;;17.23;11.07;;;;;;;-2.46;80.13;101455.59;5063622;28;20229;-58
2022/03/01 06:12:57;;;;;;;22.60;11.93;;;;;;;-2.44;80.43;101453.97;5065800;28;20184;-59
2022/03/01 06:15:23;;;;;;;17.60;11.77;;;;;;;-2.38;79.67;101463.28;5056495;28;20192;-58
2022/03/01 06:17:48;;;;;;;18.50;11.50;;;;;;;-2.28;79.13;101457.66;5076559;28;20189;-58
2022/03/01 06:20:14;;;;;;;19.23;12.30;;;;;;;-2.25;78.21;101451.81;5065223;28;20222;-58
2022/03/01 06:22:41;;;;;;;19.40;13.40;;;;;;;-2.18;77.53;101449.44;5078481;28;20220;-59
2022/03/01 06:25:07;;;;;;;20.07;11.67;;;;;;;-2.08;77.40;101463.06;5072689;28;20415;-59
2022/03/01 06:27:38;;;;;;;21.97;12.13;;;;;;;-2.18;76.93;101469.59;5071072;28;20433;-59
2022/03/01 06:30:06;;;;;;;23.10;11.87;;;;;;;-1.98;76.88;101476.72;5062388;28;20447;-58
2022/03/01 06:32:31;;;;;;;17.33;11.50;;;;;;;-1.86;74.73;101476.94;5072370;28;20522;-58
2022/03/01 06:34:57;;;;;;;16.47;11.30;;;;;;;-1.92;73.20;101475.97;5073427;28;20865;-58
2022/03/01 06:37:22;;;;;;;19.37;11.53;;;;;;;-1.76;73.83;101474.59;5054846;28;20248;-58
2022/03/01 06:39:50;;;;;;;18.13;11.77;;;;;;;-1.76;72.82;101482.16;5073510;28;20629;-60
2022/03/01 06:42:16;;;;;;;17.27;11.43;;;;;;;-1.74;71.86;101478.00;5063629;28;20228;-59
2022/03/01 06:44:42;;;;;;;15.37;10.37;;;;;;;-1.69;72.03;101474.72;5072201;28;20446;-58
2022/03/01 06:47:07;;;;;;;23.37;12.40;;;;;;;-1.52;71.52;101490.16;5073658;28;20901;-59
2022/03/01 06:49:33;;;;;;;18.87;12.40;;;;;;;-1.32;70.27;101502.28;5072674;28;20206;-61
2022/03/01 06:51:58;;;;;;;17.83;11.60;;;;;;;-1.47;69.29;101498.66;5077294;28;20692;-59
2022/03/01 06:54:23;;;;;;;19.77;10.63;;;;;;;-1.36;69.23;101503.06;5073274;28;20219;-59
2022/03/01 06:56:49;;;;;;;16.13;11.23;;;;;;;-1.24;68.33;101507.47;5063074;28;20194;-58
2022/03/01 06:59:15;;;;;;;18.87;10.03;;;;;;;-1.03;67.35;101504.44;5072767;28;20188;-59
2022/03/01 07:01:40;;;;;;;19.93;11.27;;;;;;;-1.03;66.91;101510.34;5050986;28;20243;-58
2022/03/01 07:04:06;;;;;;;16.83;10.80;;;;;;;-0.98;65.97;101505.34;5076177;28;20208;-59
2022/03/01 07:06:31;;;;;;;17.57;10.73;;;;;;;-0.90;66.63;101513.91;5073054;28;20180;-59
2022/03/01 07:08:57;;;;;;;24.03;11.63;;;;;;;-0.82;65.90;101499.75;5060000;28;20180;-58
2022/03/01 07:11:22;;;;;;;18.70;10.27;;;;;;;-0.71;64.38;101510.00;5055406;28;20228;-60
2022/03/01 07:13:48;;;;;;;17.37;10.80;;;;;;;-0.10;62.36;101503.22;5071824;28;20190;-59
2022/03/01 07:16:13;;;;;;;22.27;11.23;;;;;;;0.69;59.38;101509.09;5054555;28;20268;-59
2022/03/01 07:18:41;;;;;;;20.13;11.17;;;;;;;1.38;56.32;101503.72;5052414;28;20285;-59
2022/03/01 07:21:07;;;;;;;38.03;12.73;;;;;;;2.36;53.94;101495.66;5050737;28;20281;-59
2022/03/01 07:23:32;;;;;;;14.23;10.03;;;;;;;2.07;53.31;101490.47;5064805;28;20217;-59
2022/03/01 07:25:57;;;;;;;13.33;9.23;;;;;;;2.46;51.59;101500.75;5057601;28;20656;-60
2022/03/01 07:28:23;;;;;;;17.10;11.43;;;;;;;2.95;49.96;101493.13;5054144;28;20631;-60
2022/03/01 07:30:48;;;;;;;19.03;11.30;;;;;;;2.89;49.90;101493.13;5052181;28;20249;-59
2022/03/01 07:33:13;;;;;;;14.73;11.07;;;;;;;3.10;49.89;101484.69;5062886;28;20270;-59
2022/03/01 07:35:39;;;;;;;14.77;10.60;;;;;;;2.80;49.30;101491.44;5052083;28;20205;-58
2022/03/01 07:38:04;;;;;;;13.77;10.83;;;;;;;3.26;49.05;101499.91;5053782;28;20228;-60
2022/03/01 07:40:29;;;;;;;14.97;10.70;;;;;;;3.37;48.42;101496.50;5045765;28;20299;-59
2022/03/01 07:42:55;;;;;;;13.47;10.30;;;;;;;2.93;48.80;101502.47;5064090;28;20209;-59
2022/03/01 07:45:21;;;;;;;12.83;10.63;;;;;;;2.15;50.79;101508.31;5061014;28;20285;-58
2022/03/01 07:47:47;;;;;;;15.83;11.63;;;;;;;1.61;52.12;101499.63;5052716;28;20189;-59
2022/03/01 07:50:13;;;;;;;14.50;10.37;;;;;;;1.59;53.12;101503.84;5043054;28;20644;-59
2022/03/01 07:52:38;;;;;;;17.63;11.03;;;;;;;1.72;53.19;101506.44;5065659;28;20508;-60
2022/03/01 07:55:05;;;;;;;14.63;11.43;;;;;;;1.30;55.15;101511.25;5051151;28;20210;-63
2022/03/01 07:57:31;;;;;;;16.40;10.80;;;;;;;0.75;54.52;101516.75;5056678;28;20262;-58
2022/03/01 07:59:57;;;;;;;18.40;10.47;;;;;;;0.58;55.88;101514.06;5067062;28;20174;-58
2022/03/01 08:02:22;;;;;;;15.47;10.77;;;;;;;0.75;55.82;101512.53;5031998;28;20337;-60
2022/03/01 08:04:47;;;;;;;14.30;11.57;;;;;;;0.93;55.76;101504.25;5071337;28;20577;-58
2022/03/01 08:07:13;;;;;;;15.73;10.77;;;;;;;0.91;55.85;101515.22;5064658;28;20278;-62
2022/03/01 08:09:40;;;;;;;18.37;11.20;;;;;;;0.68;55.89;101509.94;5071049;28;20185;-60
2022/03/01 08:12:06;;;;;;;14.97;10.53;;;;;;;0.56;55.91;101509.00;5050607;28;20223;-59
2022/03/01 08:14:34;;;;;;;15.27;10.80;;;;;;;0.57;55.57;101513.22;5068370;28;20188;-59
2022/03/01 08:17:00;;;;;;;15.53;11.03;;;;;;;0.50;55.97;101508.94;5063679;28;20278;-58
2022/03/01 08:19:30;;;;;;;20.33;13.30;;;;;;;0.74;54.77;101518.44;5053224;28;20424;-58
2022/03/01 08:21:55;;;;;;;15.33;11.17;;;;;;;0.85;55.09;101518.53;5043505;28;20231;-59
2022/03/01 08:24:20;;;;;;;15.57;10.90;;;;;;;1.03;54.46;101510.25;5052588;28;20177;-58
2022/03/01 08:26:46;;;;;;;12.07;9.73;;;;;;;0.84;54.97;101511.75;5054684;28;20173;-57
2022/03/01 08:29:12;;;;;;;16.73;10.67;;;;;;;0.87;54.85;101521.06;5051148;28;20545;-57
2022/03/01 08:31:41;;;;;;;27.00;9.93;;;;;;;0.74;55.02;101517.59;5018410;28;20220;-58
2022/03/01 08:34:06;;;;;;;15.77;10.40;;;;;;;0.77;54.54;101515.06;5031858;28;20196;-58
2022/03/01 08:36:31;;;;;;;16.30;11.63;;;;;;;0.93;54.98;101504.25;5048725;28;20423;-59
2022/03/01 08:38:57;;;;;;;16.30;10.97;;;;;;;0.90;54.10;101505.91;5015512;28;20549;-58
2022/03/01 08:41:23;;;;;;;17.77;11.63;;;;;;;0.93;54.20;101509.31;5039096;28;20964;-58
2022/03/01 08:43:49;;;;;;;15.27;9.80;;;;;;;0.93;53.96;101504.25;5049285;28;20188;-59
2022/03/01 08:46:14;;;;;;;15.53;10.70;;;;;;;0.97;53.13;101500.06;5049354;28;20231;-59
2022/03/01 08:48:40;;;;;;;14.60;9.83;;;;;;;0.92;53.51;101492.41;5048918;28;20189;-58
2022/03/01 08:51:06;;;;;;;15.63;9.80;;;;;;;0.98;53.72;101494.16;5039213;28;20228;-58
2022/03/01 08:53:32;;;;;;;14.93;10.40;;;;;;;1.05;53.16;101483.22;5048848;28;20479;-59
2022/03/01 08:55:58;;;;;;;16.50;9.53;;;;;;;1.04;53.52;101481.53;5048495;28;20667;-58
2022/03/01 08:58:23;;;;;;;14.10;10.83;;;;;;;1.27;52.79;101476.59;5047960;28;20758;-59
2022/03/01 09:00:49;;;;;;;14.50;10.17;;;;;;;1.41;52.21;101476.66;5038558;28;20232;-59
2022/03/01 09:03:15;;;;;;;15.67;10.63;;;;;;;1.60;52.30;101480.16;5048410;28;20649;-66
2022/03/01 09:05:40;;;;;;;16.60;9.67;;;;;;;1.61;51.77;101476.78;5048172;28;20723;-58
2022/03/01 09:08:06;;;;;;;14.80;9.77;;;;;;;1.61;51.66;101483.53;5049061;28;20186;-58
2022/03/01 09:10:32;;;;;;;14.73;10.77;;;;;;;1.71;51.78;101482.75;5064858;28;20223;-57
2022/03/01 09:12:58;;;;;;;15.97;10.47;;;;;;;1.91;51.28;101480.28;5078098;28;20277;-58
2022/03/01 09:18:45;;;;;;;17.95;12.20;;;;;;;3.70;47.39;101465.84;5052227;28;20419;-59
2022/03/01 09:21:10;;;;;;;13.10;10.20;;;;;;;3.61;46.32;101469.28;5053853;28;20583;-59
2022/03/01 09:23:36;;;;;;;15.70;10.87;;;;;;;3.63;45.88;101472.66;5061429;28;20211;-58
2022/03/01 09:26:01;;;;;;;16.95;11.90;;;;;;;3.93;45.65;101463.22;5054085;28;20416;-58
2022/03/01 09:28:27;;;;;;;15.07;10.53;;;;;;;4.76;43.78;101461.78;5054628;28;20216;-58
2022/03/01 09:30:52;;;;;;;15.40;10.57;;;;;;;5.21;42.51;101470.72;5050776;28;20729;-58
2022/03/01 09:33:18;;;;;;;16.17;11.00;;;;;;;5.87;40.86;101462.31;5063618;28;20231;-60
2022/03/01 09:35:43;;;;;;;14.97;10.37;;;;;;;6.41;40.12;101476.94;5054723;28;20683;-59
2022/03/01 09:38:09;;;;;;;17.40;10.13;;;;;;;5.63;40.64;101473.66;5064394;28;20228;-59
2022/03/01 09:40:34;;;;;;;14.83;10.73;;;;;;;7.02;38.88;101478.50;5049961;28;20235;-58
2022/03/01 09:43:00;;;;;;;15.87;10.20;;;;;;;7.12;37.83;101469.81;5065190;28;20208;-57
2022/03/01 09:45:26;;;;;;;13.90;10.60;;;;;;;6.92;37.96;101465.00;5054496;28;20585;-58
2022/03/01 09:47:52;;;;;;;15.47;10.43;;;;;;;7.82;36.76;101469.28;5053054;28;20178;-60
2022/03/01 09:50:22;;;;;;;17.20;10.60;;;;;;;7.93;35.97;101465.66;5063588;28;20227;-59
2022/03/01 09:52:47;;;;;;;16.93;10.60;;;;;;;7.68;35.92;101461.88;5073234;28;20200;-57
2022/03/01 09:55:13;;;;;;;15.63;11.33;;;;;;;7.81;36.68;101459.91;5063963;28;20232;-58
2022/03/01 09:57:39;;;;;;;13.63;10.70;;;;;;;6.77;37.89;101467.00;5058957;28;20189;-59
2022/03/01 10:00:06;;;;;;;13.37;11.50;;;;;;;8.10;37.02;101457.59;5057342;28;20897;-59
2022/03/01 10:02:36;;;;;;;13.40;10.60;;;;;;;7.42;36.45;101463.25;5072852;28;20269;-57
2022/03/01 10:05:02;;;;;;;14.80;10.80;;;;;;;7.01;37.54;101480.22;5054590;28;20199;-59
2022/03/01 10:07:29;;;;;;;14.63;10.10;;;;;;;6.75;38.03;101476.38;5066347;28;20177;-59
2022/03/01 10:10:07;;;;;;;12.27;9.87;;;;;;;8.38;34.74;101473.19;5054033;28;20239;-58
2022/03/01 10:12:33;;;;;;;12.40;10.23;;;;;;;8.58;34.64;101475.28;5042617;28;20266;-59
2022/03/01 10:15:03;;;;;;;14.57;10.70;;;;;;;9.65;32.71;101463.09;5054002;28;20543;-60
2022/03/01 10:17:47;;;;;;;14.13;10.13;;;;;;;9.73;32.38;101470.56;5062209;28;20188;-62
2022/03/01 10:20:18;;;;;;;11.80;10.03;;;;;;;10.62;30.25;101476.47;5061715;28;20249;-59
2022/03/01 10:22:46;;;;;;;13.73;10.53;;;;;;;11.39;30.27;101473.81;5068805;28;20535;-59
2022/03/01 10:25:13;;;;;;;12.33;10.63;;;;;;;12.06;28.94;101466.25;5057474;28;20183;-59
2022/03/01 10:27:39;;;;;;;12.13;10.93;;;;;;;14.16;26.69;101469.31;5051376;28;20177;-59
2022/03/01 10:30:06;;;;;;;11.90;10.70;;;;;;;14.19;25.13;101462.25;5041940;28;20415;-60
2022/03/01 10:32:33;;;;;;;13.27;10.60;;;;;;;13.07;27.60;101452.66;5067886;28;20669;-60
2022/03/01 10:35:09;;;;;;;11.70;10.33;;;;;;;10.29;29.20;101472.31;5052007;28;20240;-59
2022/03/01 10:37:39;;;;;;;16.13;11.50;;;;;;;7.50;34.02;101470.78;5059142;28;20270;-59
2022/03/01 10:40:15;;;;;;;11.50;10.07;;;;;;;6.62;36.38;101472.34;5060883;28;20195;-59
2022/03/01 10:42:42;;;;;;;13.95;11.70;;;;;;;5.68;38.07;101474.47;5071348;28;20433;-60
2022/03/01 10:45:09;;;;;;;11.93;10.63;;;;;;;4.95;39.70;101472.69;5073117;28;20169;-60
2022/03/01 10:47:37;;;;;;;12.30;10.00;;;;;;;5.06;39.73;101474.28;5071440;28;20180;-60
2022/03/01 10:50:10;;;;;;;13.83;10.27;;;;;;;5.21;40.17;101474.16;5068016;28;20185;-59
2022/03/01 10:52:39;;;;;;;13.20;11.80;;;;;;;6.41;39.04;101465.84;5071016;28;20437;-60
2022/03/01 10:55:05;;;;;;;15.13;10.73;;;;;;;5.61;38.93;101465.19;5073246;28;20444;-60
2022/03/01 10:57:31;;;;;;;15.00;10.70;;;;;;;5.22;39.77;101457.97;5072314;28;20183;-59
2022/03/01 10:59:57;;;;;;;13.23;9.93;;;;;;;5.19;39.95;101465.66;5072955;28;20179;-60
2022/03/01 11:02:23;;;;;;;14.10;10.03;;;;;;;5.39;39.86;101462.88;5062232;28;20235;-58
2022/03/01 11:04:50;;;;;;;13.07;9.67;;;;;;;5.66;39.07;101461.72;5072624;28;20195;-58
2022/03/01 11:07:16;;;;;;;12.17;10.17;;;;;;;5.68;39.29;101454.06;5071339;28;20215;-61
2022/03/01 11:09:44;;;;;;;13.73;9.93;;;;;;;5.43;39.56;101461.16;5071639;28;20175;-59
2022/03/01 11:12:10;;;;;;;14.70;9.87;;;;;;;5.25;39.27;101454.56;5063530;28;20229;-60